sensor_id;sensor_type;location;lat;lon;timestamp;temperature;humidity
18225;DHT22;9237;48.590;8.854;2022-08-21T00:02:17;12.00;99.90
18225;DHT22;9237;48.590;8.854;2022-08-21T00:04:44;12.00;99.90
18225;DHT22;9237;48.590;8.854;2022-08-21T00:07:13;11.90;99.90
18225;DHT22;9237;48.590;8.854;2022-08-21T00:09:40;11.90;99.90
18225;DHT22;9237;48.590;8.854;2022-08-21T00:12:08;12.00;99.90
18225;DHT22;9237;48.590;8.854;2022-08-21T00:14:35;12.00;99.90
18225;DHT22;9237;48.590;8.854;2022-08-21T00:17:03;12.00;99.90
18225;DHT22;9237;48.590;8.854;2022-08-21T00:19:30;12.00;99.90
18225;DHT22;9237;48.590;8.854;2022-08-21T00:21:57;12.10;99.90
18225;DHT22;9237;48.590;8.854;2022-08-21T00:24:26;12.00;99.90
18225;DHT22;9237;48.590;8.854;2022-08-21T00:26:53;11.80;99.90
18225;DHT22;9237;48.590;8.854;2022-08-21T00:29:21;11.70;99.90
18225;DHT22;9237;48.590;8.854;2022-08-21T00:31:47;11.50;99.90
18225;DHT22;9237;48.590;8.854;2022-08-21T00:34:14;11.50;99.90
18225;DHT22;9237;48.590;8.854;2022-08-21T00:36:41;11.40;99.90
18225;DHT22;9237;48.590;8.854;2022-08-21T00:39:08;11.40;99.90
18225;DHT22;9237;48.590;8.854;2022-08-21T00:41:38;11.50;99.90
18225;DHT22;9237;48.590;8.854;2022-08-21T00:44:08;11.50;99.90
18225;DHT22;9237;48.590;8.854;2022-08-21T00:46:36;11.50;99.90
18225;DHT22;9237;48.590;8.854;2022-08-21T00:49:03;11.40;99.90
18225;DHT22;9237;48.590;8.854;2022-08-21T00:51:36;11.40;99.90
18225;DHT22;9237;48.590;8.854;2022-08-21T00:54:04;11.30;99.90
18225;DHT22;9237;48.590;8.854;2022-08-21T00:56:32;11.20;99.90
18225;DHT22;9237;48.590;8.854;2022-08-21T00:59:04;11.10;99.90
18225;DHT22;9237;48.590;8.854;2022-08-21T01:01:32;11.10;99.90
18225;DHT22;9237;48.590;8.854;2022-08-21T01:03:59;11.20;99.90
18225;DHT22;9237;48.590;8.854;2022-08-21T01:06:26;11.10;99.90
18225;DHT22;9237;48.590;8.854;2022-08-21T01:08:53;11.00;99.90
18225;DHT22;9237;48.590;8.854;2022-08-21T01:11:20;11.00;99.90
18225;DHT22;9237;48.590;8.854;2022-08-21T01:13:48;11.00;99.90
18225;DHT22;9237;48.590;8.854;2022-08-21T01:16:19;11.00;99.90
18225;DHT22;9237;48.590;8.854;2022-08-21T01:18:47;11.10;99.90
18225;DHT22;9237;48.590;8.854;2022-08-21T01:21:18;11.00;99.90
18225;DHT22;9237;48.590;8.854;2022-08-21T01:23:48;10.90;99.90
18225;DHT22;9237;48.590;8.854;2022-08-21T01:26:17;10.80;99.90
18225;DHT22;9237;48.590;8.854;2022-08-21T01:28:47;10.80;99.90
18225;DHT22;9237;48.590;8.854;2022-08-21T01:31:19;10.90;99.90
18225;DHT22;9237;48.590;8.854;2022-08-21T01:33:48;10.80;99.90
18225;DHT22;9237;48.590;8.854;2022-08-21T01:36:19;10.80;99.90
18225;DHT22;9237;48.590;8.854;2022-08-21T01:38:46;10.70;99.90
18225;DHT22;9237;48.590;8.854;2022-08-21T01:41:13;10.70;99.90
18225;DHT22;9237;48.590;8.854;2022-08-21T01:43:41;10.80;99.90
18225;DHT22;9237;48.590;8.854;2022-08-21T01:46:09;10.80;99.90
18225;DHT22;9237;48.590;8.854;2022-08-21T01:48:39;10.80;99.90
18225;DHT22;9237;48.590;8.854;2022-08-21T01:51:06;10.80;99.90
18225;DHT22;9237;48.590;8.854;2022-08-21T01:53:35;10.70;99.90
18225;DHT22;9237;48.590;8.854;2022-08-21T01:56:05;10.60;99.90
18225;DHT22;9237;48.590;8.854;2022-08-21T01:58:32;10.70;99.90
18225;DHT22;9237;48.590;8.854;2022-08-21T02:00:59;10.80;99.90
18225;DHT22;9237;48.590;8.854;2022-08-21T02:03:26;10.80;99.90
18225;DHT22;9237;48.590;8.854;2022-08-21T02:05:54;10.70;99.90
18225;DHT22;9237;48.590;8.854;2022-08-21T02:08:21;10.70;99.90
18225;DHT22;9237;48.590;8.854;2022-08-21T02:10:51;10.60;99.90
18225;DHT22;9237;48.590;8.854;2022-08-21T02:13:19;10.60;99.90
18225;DHT22;9237;48.590;8.854;2022-08-21T02:15:46;10.70;99.90
18225;DHT22;9237;48.590;8.854;2022-08-21T02:18:13;10.80;99.90
18225;DHT22;9237;48.590;8.854;2022-08-21T02:20:42;10.70;99.90
18225;DHT22;9237;48.590;8.854;2022-08-21T02:23:10;10.60;99.90
18225;DHT22;9237;48.590;8.854;2022-08-21T02:25:38;10.50;99.90
18225;DHT22;9237;48.590;8.854;2022-08-21T02:28:08;10.40;99.90
18225;DHT22;9237;48.590;8.854;2022-08-21T02:30:38;10.40;99.90
18225;DHT22;9237;48.590;8.854;2022-08-21T02:33:06;10.30;99.90
18225;DHT22;9237;48.590;8.854;2022-08-21T02:35:35;10.30;99.90
18225;DHT22;9237;48.590;8.854;2022-08-21T02:38:05;10.30;99.90
18225;DHT22;9237;48.590;8.854;2022-08-21T02:40:36;10.20;99.90
18225;DHT22;9237;48.590;8.854;2022-08-21T02:43:06;10.10;99.90
18225;DHT22;9237;48.590;8.854;2022-08-21T02:45:34;10.10;99.90
18225;DHT22;9237;48.590;8.854;2022-08-21T02:48:04;10.10;99.90
18225;DHT22;9237;48.590;8.854;2022-08-21T02:50:35;10.20;99.90
18225;DHT22;9237;48.590;8.854;2022-08-21T02:53:04;10.20;99.90
18225;DHT22;9237;48.590;8.854;2022-08-21T02:55:35;10.20;99.90
18225;DHT22;9237;48.590;8.854;2022-08-21T02:58:04;10.20;99.90
18225;DHT22;9237;48.590;8.854;2022-08-21T03:00:35;10.30;99.90
18225;DHT22;9237;48.590;8.854;2022-08-21T03:03:03;10.30;99.90
18225;DHT22;9237;48.590;8.854;2022-08-21T03:05:32;10.30;99.90
18225;DHT22;9237;48.590;8.854;2022-08-21T03:08:00;10.20;99.90
18225;DHT22;9237;48.590;8.854;2022-08-21T03:10:28;10.20;99.90
18225;DHT22;9237;48.590;8.854;2022-08-21T03:12:56;10.10;99.90
18225;DHT22;9237;48.590;8.854;2022-08-21T03:15:31;9.90;99.90
18225;DHT22;9237;48.590;8.854;2022-08-21T03:18:00;9.90;99.90
18225;DHT22;9237;48.590;8.854;2022-08-21T03:20:28;9.90;99.90
18225;DHT22;9237;48.590;8.854;2022-08-21T03:22:57;9.90;99.90
18225;DHT22;9237;48.590;8.854;2022-08-21T03:25:26;10.00;99.90
18225;DHT22;9237;48.590;8.854;2022-08-21T03:27:53;9.90;99.90
18225;DHT22;9237;48.590;8.854;2022-08-21T03:30:21;9.90;99.90
18225;DHT22;9237;48.590;8.854;2022-08-21T03:32:48;9.90;99.90
18225;DHT22;9237;48.590;8.854;2022-08-21T03:35:17;9.90;99.90
18225;DHT22;9237;48.590;8.854;2022-08-21T03:37:45;9.90;99.90
18225;DHT22;9237;48.590;8.854;2022-08-21T03:40:15;9.80;99.90
18225;DHT22;9237;48.590;8.854;2022-08-21T03:42:42;9.70;99.90
18225;DHT22;9237;48.590;8.854;2022-08-21T03:45:10;9.60;99.90
18225;DHT22;9237;48.590;8.854;2022-08-21T03:47:37;9.50;99.90
18225;DHT22;9237;48.590;8.854;2022-08-21T03:50:05;9.50;99.90
18225;DHT22;9237;48.590;8.854;2022-08-21T03:52:34;9.50;99.90
18225;DHT22;9237;48.590;8.854;2022-08-21T03:55:01;9.50;99.90
18225;DHT22;9237;48.590;8.854;2022-08-21T03:57:28;9.40;99.90
18225;DHT22;9237;48.590;8.854;2022-08-21T03:59:55;9.40;99.90
18225;DHT22;9237;48.590;8.854;2022-08-21T04:02:22;9.50;99.90
18225;DHT22;9237;48.590;8.854;2022-08-21T04:04:49;9.50;99.90
18225;DHT22;9237;48.590;8.854;2022-08-21T04:07:16;9.60;99.90
18225;DHT22;9237;48.590;8.854;2022-08-21T04:09:44;9.70;99.90
18225;DHT22;9237;48.590;8.854;2022-08-21T04:12:11;9.60;99.90
18225;DHT22;9237;48.590;8.854;2022-08-21T04:14:39;9.60;99.90
18225;DHT22;9237;48.590;8.854;2022-08-21T04:17:07;9.40;99.90
18225;DHT22;9237;48.590;8.854;2022-08-21T04:19:34;9.30;99.90
18225;DHT22;9237;48.590;8.854;2022-08-21T04:22:00;9.20;99.90
18225;DHT22;9237;48.590;8.854;2022-08-21T04:24:27;9.30;99.90
18225;DHT22;9237;48.590;8.854;2022-08-21T04:26:55;9.40;99.90
18225;DHT22;9237;48.590;8.854;2022-08-21T04:29:22;9.40;99.90
18225;DHT22;9237;48.590;8.854;2022-08-21T04:31:49;9.30;99.90
18225;DHT22;9237;48.590;8.854;2022-08-21T04:34:17;9.30;99.90
18225;DHT22;9237;48.590;8.854;2022-08-21T04:36:44;9.30;99.90
18225;DHT22;9237;48.590;8.854;2022-08-21T04:39:12;9.20;99.90
18225;DHT22;9237;48.590;8.854;2022-08-21T04:41:39;9.20;99.90
18225;DHT22;9237;48.590;8.854;2022-08-21T04:44:08;9.20;99.90
18225;DHT22;9237;48.590;8.854;2022-08-21T04:46:35;9.20;99.90
18225;DHT22;9237;48.590;8.854;2022-08-21T04:49:02;9.30;99.90
18225;DHT22;9237;48.590;8.854;2022-08-21T04:51:32;9.30;99.90
18225;DHT22;9237;48.590;8.854;2022-08-21T04:54:02;9.50;99.90
18225;DHT22;9237;48.590;8.854;2022-08-21T04:56:32;9.70;99.90
18225;DHT22;9237;48.590;8.854;2022-08-21T04:59:02;9.60;99.90
18225;DHT22;9237;48.590;8.854;2022-08-21T05:01:34;9.60;99.90
18225;DHT22;9237;48.590;8.854;2022-08-21T05:04:04;9.70;99.90
18225;DHT22;9237;48.590;8.854;2022-08-21T05:06:35;10.00;99.90
18225;DHT22;9237;48.590;8.854;2022-08-21T05:09:04;10.20;99.90
18225;DHT22;9237;48.590;8.854;2022-08-21T05:11:31;10.20;99.90
18225;DHT22;9237;48.590;8.854;2022-08-21T05:14:00;10.20;99.90
18225;DHT22;9237;48.590;8.854;2022-08-21T05:16:27;10.30;99.90
18225;DHT22;9237;48.590;8.854;2022-08-21T05:18:55;10.40;99.90
18225;DHT22;9237;48.590;8.854;2022-08-21T05:21:22;11.10;99.90
18225;DHT22;9237;48.590;8.854;2022-08-21T05:23:49;11.40;99.90
18225;DHT22;9237;48.590;8.854;2022-08-21T05:26:16;11.50;99.90
18225;DHT22;9237;48.590;8.854;2022-08-21T05:28:43;11.60;99.90
18225;DHT22;9237;48.590;8.854;2022-08-21T05:31:10;11.60;99.90
18225;DHT22;9237;48.590;8.854;2022-08-21T05:33:37;11.80;99.90
18225;DHT22;9237;48.590;8.854;2022-08-21T05:36:06;11.90;99.90
18225;DHT22;9237;48.590;8.854;2022-08-21T05:38:33;12.10;99.90
18225;DHT22;9237;48.590;8.854;2022-08-21T05:40:59;12.30;99.90
18225;DHT22;9237;48.590;8.854;2022-08-21T05:43:26;12.60;99.90
18225;DHT22;9237;48.590;8.854;2022-08-21T05:45:53;12.80;99.90
18225;DHT22;9237;48.590;8.854;2022-08-21T05:48:21;13.20;99.90
18225;DHT22;9237;48.590;8.854;2022-08-21T05:50:50;13.60;99.90
18225;DHT22;9237;48.590;8.854;2022-08-21T05:53:21;14.10;99.90
18225;DHT22;9237;48.590;8.854;2022-08-21T05:55:49;14.70;99.90
18225;DHT22;9237;48.590;8.854;2022-08-21T05:58:17;15.30;99.90
18225;DHT22;9237;48.590;8.854;2022-08-21T06:00:46;15.70;99.90
18225;DHT22;9237;48.590;8.854;2022-08-21T06:03:15;15.90;99.90
18225;DHT22;9237;48.590;8.854;2022-08-21T06:05:43;16.40;99.90
18225;DHT22;9237;48.590;8.854;2022-08-21T06:08:11;16.80;99.90
18225;DHT22;9237;48.590;8.854;2022-08-21T06:10:39;16.90;99.90
18225;DHT22;9237;48.590;8.854;2022-08-21T06:13:06;17.00;99.90
18225;DHT22;9237;48.590;8.854;2022-08-21T06:15:33;17.10;99.90
18225;DHT22;9237;48.590;8.854;2022-08-21T06:17:59;17.40;99.90
18225;DHT22;9237;48.590;8.854;2022-08-21T06:20:26;17.60;99.90
18225;DHT22;9237;48.590;8.854;2022-08-21T06:22:53;17.60;99.90
18225;DHT22;9237;48.590;8.854;2022-08-21T06:25:20;17.80;99.90
18225;DHT22;9237;48.590;8.854;2022-08-21T06:27:49;17.80;99.90
18225;DHT22;9237;48.590;8.854;2022-08-21T06:30:16;17.80;99.90
18225;DHT22;9237;48.590;8.854;2022-08-21T06:32:43;17.90;99.90
18225;DHT22;9237;48.590;8.854;2022-08-21T06:35:10;18.20;99.90
18225;DHT22;9237;48.590;8.854;2022-08-21T06:37:37;18.20;99.90
18225;DHT22;9237;48.590;8.854;2022-08-21T06:40:05;18.20;99.90
18225;DHT22;9237;48.590;8.854;2022-08-21T06:42:32;18.20;99.90
18225;DHT22;9237;48.590;8.854;2022-08-21T06:45:00;18.40;99.90
18225;DHT22;9237;48.590;8.854;2022-08-21T06:47:27;18.50;99.90
18225;DHT22;9237;48.590;8.854;2022-08-21T06:49:54;18.70;99.90
18225;DHT22;9237;48.590;8.854;2022-08-21T06:52:21;19.00;99.90
18225;DHT22;9237;48.590;8.854;2022-08-21T06:54:47;19.20;99.90
18225;DHT22;9237;48.590;8.854;2022-08-21T06:57:15;19.30;99.90
18225;DHT22;9237;48.590;8.854;2022-08-21T06:59:43;19.70;99.90
18225;DHT22;9237;48.590;8.854;2022-08-21T07:02:11;19.90;99.90
18225;DHT22;9237;48.590;8.854;2022-08-21T07:04:38;20.20;99.90
18225;DHT22;9237;48.590;8.854;2022-08-21T07:07:05;20.50;99.90
18225;DHT22;9237;48.590;8.854;2022-08-21T07:09:32;20.70;99.90
18225;DHT22;9237;48.590;8.854;2022-08-21T07:11:59;20.80;99.90
18225;DHT22;9237;48.590;8.854;2022-08-21T07:14:26;20.60;99.90
18225;DHT22;9237;48.590;8.854;2022-08-21T07:16:53;21.10;99.90
18225;DHT22;9237;48.590;8.854;2022-08-21T07:19:21;21.10;99.90
18225;DHT22;9237;48.590;8.854;2022-08-21T07:21:48;21.40;99.90
18225;DHT22;9237;48.590;8.854;2022-08-21T07:24:15;21.10;99.90
18225;DHT22;9237;48.590;8.854;2022-08-21T07:26:42;20.90;99.90
18225;DHT22;9237;48.590;8.854;2022-08-21T07:29:09;20.80;99.90
18225;DHT22;9237;48.590;8.854;2022-08-21T07:31:35;21.40;99.90
18225;DHT22;9237;48.590;8.854;2022-08-21T07:34:03;22.00;99.90
18225;DHT22;9237;48.590;8.854;2022-08-21T07:36:31;22.20;99.90
18225;DHT22;9237;48.590;8.854;2022-08-21T07:38:58;22.40;99.90
18225;DHT22;9237;48.590;8.854;2022-08-21T07:41:27;22.90;99.90
18225;DHT22;9237;48.590;8.854;2022-08-21T07:43:55;23.30;99.90
18225;DHT22;9237;48.590;8.854;2022-08-21T07:46:23;23.60;99.90
18225;DHT22;9237;48.590;8.854;2022-08-21T07:48:50;23.70;99.60
18225;DHT22;9237;48.590;8.854;2022-08-21T07:51:18;23.80;99.40
18225;DHT22;9237;48.590;8.854;2022-08-21T07:53:50;23.70;98.00
18225;DHT22;9237;48.590;8.854;2022-08-21T07:56:18;24.10;96.90
18225;DHT22;9237;48.590;8.854;2022-08-21T07:58:45;24.80;96.10
18225;DHT22;9237;48.590;8.854;2022-08-21T08:01:12;24.50;96.00
18225;DHT22;9237;48.590;8.854;2022-08-21T08:03:39;24.50;95.40
18225;DHT22;9237;48.590;8.854;2022-08-21T08:06:07;25.10;94.30
18225;DHT22;9237;48.590;8.854;2022-08-21T08:08:37;25.30;93.70
18225;DHT22;9237;48.590;8.854;2022-08-21T08:11:06;25.60;92.80
18225;DHT22;9237;48.590;8.854;2022-08-21T08:13:38;26.00;91.50
18225;DHT22;9237;48.590;8.854;2022-08-21T08:16:06;26.10;91.00
18225;DHT22;9237;48.590;8.854;2022-08-21T08:18:32;25.90;90.00
18225;DHT22;9237;48.590;8.854;2022-08-21T08:20:59;26.30;90.50
18225;DHT22;9237;48.590;8.854;2022-08-21T08:23:26;26.40;90.00
18225;DHT22;9237;48.590;8.854;2022-08-21T08:25:53;27.00;87.20
18225;DHT22;9237;48.590;8.854;2022-08-21T08:28:22;27.20;85.30
18225;DHT22;9237;48.590;8.854;2022-08-21T08:30:49;27.30;83.70
18225;DHT22;9237;48.590;8.854;2022-08-21T08:33:16;27.50;82.70
18225;DHT22;9237;48.590;8.854;2022-08-21T08:35:45;27.70;81.60
18225;DHT22;9237;48.590;8.854;2022-08-21T08:38:13;27.70;76.70
18225;DHT22;9237;48.590;8.854;2022-08-21T08:40:47;27.70;78.40
18225;DHT22;9237;48.590;8.854;2022-08-21T08:43:18;27.80;77.80
18225;DHT22;9237;48.590;8.854;2022-08-21T08:45:50;28.00;77.70
18225;DHT22;9237;48.590;8.854;2022-08-21T08:48:31;28.50;74.80
18225;DHT22;9237;48.590;8.854;2022-08-21T08:51:02;28.20;73.90
18225;DHT22;9237;48.590;8.854;2022-08-21T08:53:35;28.20;72.40
18225;DHT22;9237;48.590;8.854;2022-08-21T08:56:04;28.30;72.80
18225;DHT22;9237;48.590;8.854;2022-08-21T08:58:34;28.40;72.20
18225;DHT22;9237;48.590;8.854;2022-08-21T09:01:11;27.90;69.40
18225;DHT22;9237;48.590;8.854;2022-08-21T09:03:40;27.60;68.80
18225;DHT22;9237;48.590;8.854;2022-08-21T09:06:12;28.20;69.60
18225;DHT22;9237;48.590;8.854;2022-08-21T09:08:52;28.40;67.50
18225;DHT22;9237;48.590;8.854;2022-08-21T09:11:27;29.00;66.20
18225;DHT22;9237;48.590;8.854;2022-08-21T09:14:05;29.50;64.50
18225;DHT22;9237;48.590;8.854;2022-08-21T09:16:42;29.70;62.90
18225;DHT22;9237;48.590;8.854;2022-08-21T09:19:22;30.00;60.40
18225;DHT22;9237;48.590;8.854;2022-08-21T09:21:58;30.10;61.10
18225;DHT22;9237;48.590;8.854;2022-08-21T09:24:32;30.00;59.60
18225;DHT22;9237;48.590;8.854;2022-08-21T09:27:06;29.10;59.00
18225;DHT22;9237;48.590;8.854;2022-08-21T09:29:36;28.40;62.30
18225;DHT22;9237;48.590;8.854;2022-08-21T09:32:10;29.30;61.80
18225;DHT22;9237;48.590;8.854;2022-08-21T09:34:39;30.20;59.70
18225;DHT22;9237;48.590;8.854;2022-08-21T09:37:16;30.30;57.80
18225;DHT22;9237;48.590;8.854;2022-08-21T09:39:43;30.60;57.40
18225;DHT22;9237;48.590;8.854;2022-08-21T09:42:10;30.80;58.10
18225;DHT22;9237;48.590;8.854;2022-08-21T09:44:40;30.80;56.30
18225;DHT22;9237;48.590;8.854;2022-08-21T09:47:11;30.60;55.50
18225;DHT22;9237;48.590;8.854;2022-08-21T09:49:42;30.90;56.70
18225;DHT22;9237;48.590;8.854;2022-08-21T09:52:16;31.10;55.30
18225;DHT22;9237;48.590;8.854;2022-08-21T09:54:45;31.00;54.10
18225;DHT22;9237;48.590;8.854;2022-08-21T09:57:15;29.70;54.70
18225;DHT22;9237;48.590;8.854;2022-08-21T10:00:10;30.00;55.80
18225;DHT22;9237;48.590;8.854;2022-08-21T10:02:38;30.20;56.10
18225;DHT22;9237;48.590;8.854;2022-08-21T10:05:08;30.00;56.00
18225;DHT22;9237;48.590;8.854;2022-08-21T10:07:37;29.50;55.00
18225;DHT22;9237;48.590;8.854;2022-08-21T10:10:07;28.10;55.20
18225;DHT22;9237;48.590;8.854;2022-08-21T10:12:44;27.90;54.50
18225;DHT22;9237;48.590;8.854;2022-08-21T10:15:18;29.50;54.80
18225;DHT22;9237;48.590;8.854;2022-08-21T10:17:55;30.20;53.90
18225;DHT22;9237;48.590;8.854;2022-08-21T10:20:32;30.50;53.50
18225;DHT22;9237;48.590;8.854;2022-08-21T10:23:12;30.60;52.20
18225;DHT22;9237;48.590;8.854;2022-08-21T10:25:47;31.40;53.20
18225;DHT22;9237;48.590;8.854;2022-08-21T10:28:21;32.10;50.20
18225;DHT22;9237;48.590;8.854;2022-08-21T10:30:58;31.50;50.90
18225;DHT22;9237;48.590;8.854;2022-08-21T10:33:36;30.90;50.00
18225;DHT22;9237;48.590;8.854;2022-08-21T10:36:11;28.90;53.00
18225;DHT22;9237;48.590;8.854;2022-08-21T10:38:59;28.70;53.10
18225;DHT22;9237;48.590;8.854;2022-08-21T10:41:42;28.10;54.60
18225;DHT22;9237;48.590;8.854;2022-08-21T10:44:27;28.80;53.20
18225;DHT22;9237;48.590;8.854;2022-08-21T10:47:00;30.10;52.60
18225;DHT22;9237;48.590;8.854;2022-08-21T10:49:35;30.40;51.30
18225;DHT22;9237;48.590;8.854;2022-08-21T10:52:23;30.70;51.40
18225;DHT22;9237;48.590;8.854;2022-08-21T10:55:00;31.40;51.60
18225;DHT22;9237;48.590;8.854;2022-08-21T10:57:34;32.20;51.10
18225;DHT22;9237;48.590;8.854;2022-08-21T11:00:07;33.20;49.30
18225;DHT22;9237;48.590;8.854;2022-08-21T11:02:38;32.80;47.80
18225;DHT22;9237;48.590;8.854;2022-08-21T11:05:14;33.20;48.70
18225;DHT22;9237;48.590;8.854;2022-08-21T11:07:47;33.40;47.10
18225;DHT22;9237;48.590;8.854;2022-08-21T11:10:19;33.40;47.20
18225;DHT22;9237;48.590;8.854;2022-08-21T11:12:51;32.90;46.80
18225;DHT22;9237;48.590;8.854;2022-08-21T11:15:30;33.10;46.90
18225;DHT22;9237;48.590;8.854;2022-08-21T11:18:07;33.40;46.20
18225;DHT22;9237;48.590;8.854;2022-08-21T11:20:41;33.60;47.10
18225;DHT22;9237;48.590;8.854;2022-08-21T11:23:14;32.30;46.80
18225;DHT22;9237;48.590;8.854;2022-08-21T11:25:47;31.70;48.10
18225;DHT22;9237;48.590;8.854;2022-08-21T11:28:20;31.70;48.50
18225;DHT22;9237;48.590;8.854;2022-08-21T11:30:59;30.40;51.00
18225;DHT22;9237;48.590;8.854;2022-08-21T11:33:43;31.00;50.00
18225;DHT22;9237;48.590;8.854;2022-08-21T11:36:19;31.30;49.60
18225;DHT22;9237;48.590;8.854;2022-08-21T11:38:53;31.20;48.30
18225;DHT22;9237;48.590;8.854;2022-08-21T11:41:29;31.80;48.80
18225;DHT22;9237;48.590;8.854;2022-08-21T11:44:04;32.80;46.90
18225;DHT22;9237;48.590;8.854;2022-08-21T11:46:42;33.20;46.30
18225;DHT22;9237;48.590;8.854;2022-08-21T11:49:31;33.80;46.10
18225;DHT22;9237;48.590;8.854;2022-08-21T11:52:10;33.80;43.90
18225;DHT22;9237;48.590;8.854;2022-08-21T11:54:45;33.40;44.10
18225;DHT22;9237;48.590;8.854;2022-08-21T11:57:17;33.20;45.50
18225;DHT22;9237;48.590;8.854;2022-08-21T11:59:51;33.60;45.10
18225;DHT22;9237;48.590;8.854;2022-08-21T12:02:23;32.50;46.80
18225;DHT22;9237;48.590;8.854;2022-08-21T12:04:54;32.60;45.60
18225;DHT22;9237;48.590;8.854;2022-08-21T12:07:33;32.70;46.40
18225;DHT22;9237;48.590;8.854;2022-08-21T12:10:04;31.90;45.30
18225;DHT22;9237;48.590;8.854;2022-08-21T12:12:33;32.70;47.00
18225;DHT22;9237;48.590;8.854;2022-08-21T12:15:23;33.80;44.00
18225;DHT22;9237;48.590;8.854;2022-08-21T12:17:57;34.30;42.00
18225;DHT22;9237;48.590;8.854;2022-08-21T12:20:35;33.40;42.70
18225;DHT22;9237;48.590;8.854;2022-08-21T12:23:15;33.10;43.10
18225;DHT22;9237;48.590;8.854;2022-08-21T12:25:44;33.90;42.30
18225;DHT22;9237;48.590;8.854;2022-08-21T12:28:15;34.30;41.60
18225;DHT22;9237;48.590;8.854;2022-08-21T12:30:44;34.90;39.80
18225;DHT22;9237;48.590;8.854;2022-08-21T12:33:24;35.30;40.00
18225;DHT22;9237;48.590;8.854;2022-08-21T12:36:02;34.90;39.40
18225;DHT22;9237;48.590;8.854;2022-08-21T12:38:34;32.20;43.70
18225;DHT22;9237;48.590;8.854;2022-08-21T12:41:10;32.50;42.80
18225;DHT22;9237;48.590;8.854;2022-08-21T12:43:41;33.80;42.30
18225;DHT22;9237;48.590;8.854;2022-08-21T12:46:16;34.50;40.50
18225;DHT22;9237;48.590;8.854;2022-08-21T12:48:48;35.40;40.70
18225;DHT22;9237;48.590;8.854;2022-08-21T12:51:21;35.70;38.40
18225;DHT22;9237;48.590;8.854;2022-08-21T12:53:52;35.40;38.90
18225;DHT22;9237;48.590;8.854;2022-08-21T12:56:25;35.70;40.50
18225;DHT22;9237;48.590;8.854;2022-08-21T12:58:55;35.10;38.30
18225;DHT22;9237;48.590;8.854;2022-08-21T13:01:27;35.80;40.10
18225;DHT22;9237;48.590;8.854;2022-08-21T13:03:58;35.00;39.10
18225;DHT22;9237;48.590;8.854;2022-08-21T13:06:27;35.60;38.00
18225;DHT22;9237;48.590;8.854;2022-08-21T13:09:04;36.00;39.00
18225;DHT22;9237;48.590;8.854;2022-08-21T13:11:32;36.60;38.20
18225;DHT22;9237;48.590;8.854;2022-08-21T13:14:00;35.50;38.40
18225;DHT22;9237;48.590;8.854;2022-08-21T13:16:29;35.90;39.00
18225;DHT22;9237;48.590;8.854;2022-08-21T13:18:59;36.00;37.70
18225;DHT22;9237;48.590;8.854;2022-08-21T13:21:29;35.40;37.20
18225;DHT22;9237;48.590;8.854;2022-08-21T13:24:13;35.50;38.10
18225;DHT22;9237;48.590;8.854;2022-08-21T13:26:41;36.40;37.60
18225;DHT22;9237;48.590;8.854;2022-08-21T13:29:11;36.30;36.70
18225;DHT22;9237;48.590;8.854;2022-08-21T13:31:39;35.70;37.40
18225;DHT22;9237;48.590;8.854;2022-08-21T13:34:09;34.90;38.30
18225;DHT22;9237;48.590;8.854;2022-08-21T13:36:39;35.50;38.20
18225;DHT22;9237;48.590;8.854;2022-08-21T13:39:11;35.60;37.50
18225;DHT22;9237;48.590;8.854;2022-08-21T13:41:41;35.20;38.00
18225;DHT22;9237;48.590;8.854;2022-08-21T13:44:16;33.70;39.20
18225;DHT22;9237;48.590;8.854;2022-08-21T13:46:44;31.80;42.10
18225;DHT22;9237;48.590;8.854;2022-08-21T13:49:14;30.50;43.60
18225;DHT22;9237;48.590;8.854;2022-08-21T13:51:42;29.70;45.30
18225;DHT22;9237;48.590;8.854;2022-08-21T13:54:22;29.50;46.20
18225;DHT22;9237;48.590;8.854;2022-08-21T13:56:50;30.20;45.20
18225;DHT22;9237;48.590;8.854;2022-08-21T13:59:25;31.60;43.40
18225;DHT22;9237;48.590;8.854;2022-08-21T14:01:55;32.60;41.50
18225;DHT22;9237;48.590;8.854;2022-08-21T14:04:27;31.60;42.10
18225;DHT22;9237;48.590;8.854;2022-08-21T14:06:57;30.20;44.20
18225;DHT22;9237;48.590;8.854;2022-08-21T14:09:29;29.40;45.50
18225;DHT22;9237;48.590;8.854;2022-08-21T14:11:59;28.60;46.80
18225;DHT22;9237;48.590;8.854;2022-08-21T14:14:31;27.90;48.00
18225;DHT22;9237;48.590;8.854;2022-08-21T14:17:00;27.80;49.20
18225;DHT22;9237;48.590;8.854;2022-08-21T14:19:36;30.00;46.70
18225;DHT22;9237;48.590;8.854;2022-08-21T14:22:23;31.40;43.30
18225;DHT22;9237;48.590;8.854;2022-08-21T14:24:59;32.30;42.10
18225;DHT22;9237;48.590;8.854;2022-08-21T14:27:27;30.50;43.50
18225;DHT22;9237;48.590;8.854;2022-08-21T14:29:58;30.20;43.70
18225;DHT22;9237;48.590;8.854;2022-08-21T14:32:29;32.10;42.60
18225;DHT22;9237;48.590;8.854;2022-08-21T14:34:57;31.70;40.90
18225;DHT22;9237;48.590;8.854;2022-08-21T14:37:24;31.90;42.10
18225;DHT22;9237;48.590;8.854;2022-08-21T14:39:53;33.00;39.90
18225;DHT22;9237;48.590;8.854;2022-08-21T14:42:20;34.10;39.30
18225;DHT22;9237;48.590;8.854;2022-08-21T14:44:47;34.40;37.40
18225;DHT22;9237;48.590;8.854;2022-08-21T14:47:14;34.50;38.80
18225;DHT22;9237;48.590;8.854;2022-08-21T14:49:41;35.30;37.30
18225;DHT22;9237;48.590;8.854;2022-08-21T14:52:08;35.30;35.60
18225;DHT22;9237;48.590;8.854;2022-08-21T14:54:35;35.10;35.40
18225;DHT22;9237;48.590;8.854;2022-08-21T14:57:08;34.60;36.00
18225;DHT22;9237;48.590;8.854;2022-08-21T14:59:36;33.00;37.90
18225;DHT22;9237;48.590;8.854;2022-08-21T15:02:04;31.50;40.30
18225;DHT22;9237;48.590;8.854;2022-08-21T15:04:31;30.40;41.40
18225;DHT22;9237;48.590;8.854;2022-08-21T15:06:58;29.50;43.50
18225;DHT22;9237;48.590;8.854;2022-08-21T15:09:25;28.90;44.20
18225;DHT22;9237;48.590;8.854;2022-08-21T15:11:55;28.30;47.40
18225;DHT22;9237;48.590;8.854;2022-08-21T15:14:26;27.40;49.40
18225;DHT22;9237;48.590;8.854;2022-08-21T15:16:53;27.30;50.30
18225;DHT22;9237;48.590;8.854;2022-08-21T15:19:20;26.90;50.00
18225;DHT22;9237;48.590;8.854;2022-08-21T15:21:47;27.00;50.30
18225;DHT22;9237;48.590;8.854;2022-08-21T15:24:14;26.70;50.30
18225;DHT22;9237;48.590;8.854;2022-08-21T15:26:41;26.80;50.30
18225;DHT22;9237;48.590;8.854;2022-08-21T15:29:08;26.80;50.70
18225;DHT22;9237;48.590;8.854;2022-08-21T15:31:36;26.60;51.00
18225;DHT22;9237;48.590;8.854;2022-08-21T15:34:15;26.40;50.40
18225;DHT22;9237;48.590;8.854;2022-08-21T15:36:42;27.20;50.00
18225;DHT22;9237;48.590;8.854;2022-08-21T15:39:09;28.40;49.30
18225;DHT22;9237;48.590;8.854;2022-08-21T15:41:36;29.50;47.80
18225;DHT22;9237;48.590;8.854;2022-08-21T15:44:02;29.70;47.00
18225;DHT22;9237;48.590;8.854;2022-08-21T15:46:29;29.10;47.30
18225;DHT22;9237;48.590;8.854;2022-08-21T15:48:57;28.60;46.80
18225;DHT22;9237;48.590;8.854;2022-08-21T15:51:24;28.50;47.50
18225;DHT22;9237;48.590;8.854;2022-08-21T15:53:50;28.90;47.20
18225;DHT22;9237;48.590;8.854;2022-08-21T15:56:21;28.90;46.40
18225;DHT22;9237;48.590;8.854;2022-08-21T15:58:48;28.70;46.10
18225;DHT22;9237;48.590;8.854;2022-08-21T16:01:15;29.00;46.10
18225;DHT22;9237;48.590;8.854;2022-08-21T16:03:42;30.00;45.10
18225;DHT22;9237;48.590;8.854;2022-08-21T16:06:11;30.40;44.20